createdAt,value
2018-04-17T00:01:41.006Z,9.30
2018-04-17T00:04:09.144Z,9.20
2018-04-17T00:06:37.304Z,9.20
2018-04-17T00:09:06.297Z,9.20
2018-04-17T00:11:34.464Z,9.20
2018-04-17T00:14:02.605Z,9.10
2018-04-17T00:16:30.765Z,9.10
2018-04-17T00:18:58.907Z,9.10
2018-04-17T00:21:27.833Z,9.00
2018-04-17T00:23:55.967Z,9.00
2018-04-17T00:26:24.892Z,8.80
2018-04-17T00:28:58.877Z,8.80
2018-04-17T00:31:27.804Z,8.70
2018-04-17T00:33:55.942Z,8.70
2018-04-17T00:36:24.868Z,8.60
2018-04-17T00:38:53.011Z,8.60
2018-04-17T00:41:21.941Z,8.50
2018-04-17T00:43:50.077Z,8.50
2018-04-17T00:46:18.999Z,8.40
2018-04-17T00:48:47.139Z,8.40
2018-04-17T00:51:16.069Z,8.30
2018-04-17T00:54:08.798Z,8.30
2018-04-17T00:56:36.961Z,8.30
2018-04-17T00:59:05.095Z,8.30
2018-04-17T01:01:33.260Z,8.20
2018-04-17T01:04:01.394Z,8.20
2018-04-17T01:06:29.548Z,8.30
2018-04-17T01:08:57.685Z,8.30
2018-04-17T01:11:25.845Z,8.30
2018-04-17T01:13:53.976Z,8.40
2018-04-17T01:16:22.146Z,8.40
2018-04-17T01:18:50.280Z,8.40
2018-04-17T01:21:18.441Z,8.40
2018-04-17T01:23:46.579Z,8.50
2018-04-17T01:26:14.744Z,8.50
2018-04-17T01:28:42.880Z,8.50
2018-04-17T01:31:11.041Z,8.60
2018-04-17T01:33:39.180Z,8.60
2018-04-17T01:36:07.336Z,8.60
2018-04-17T01:38:35.471Z,8.70
2018-04-17T01:41:03.636Z,8.70
2018-04-17T01:43:31.768Z,8.70
2018-04-17T01:45:59.937Z,8.70
2018-04-17T01:48:28.073Z,8.70
2018-04-17T01:50:56.240Z,8.70
2018-04-17T01:53:24.376Z,8.60
2018-04-17T01:55:52.537Z,8.60
2018-04-17T01:58:20.673Z,8.60
2018-04-17T02:00:48.833Z,8.60
2018-04-17T02:03:16.968Z,8.50
2018-04-17T02:05:45.132Z,8.50
2018-04-17T02:08:13.265Z,8.40
2018-04-17T02:10:41.433Z,8.30
2018-04-17T02:13:09.568Z,8.20
2018-04-17T02:15:37.711Z,8.10
2018-04-17T02:18:05.884Z,8.10
2018-04-17T02:20:34.026Z,8.00
2018-04-17T02:23:02.191Z,8.10
2018-04-17T02:25:30.332Z,8.10
2018-04-17T02:27:58.494Z,8.00
2018-04-17T02:30:26.628Z,8.00
2018-04-17T02:32:55.558Z,7.80
2018-04-17T02:35:23.705Z,7.80
2018-04-17T02:37:52.632Z,7.80
2018-04-17T02:40:20.773Z,7.80
2018-04-17T02:42:49.696Z,7.80
2018-04-17T02:45:17.836Z,7.80
2018-04-17T02:47:46.767Z,7.70
2018-04-17T02:50:14.905Z,7.80
2018-04-17T02:52:43.836Z,7.80
2018-04-17T02:55:11.976Z,7.70
2018-04-17T02:57:41.021Z,7.80
2018-04-17T03:00:09.156Z,7.80
2018-04-17T03:02:37.320Z,7.70
2018-04-17T03:05:05.456Z,7.70
2018-04-17T03:07:33.629Z,7.60
2018-04-17T03:10:01.772Z,7.60
2018-04-17T03:12:29.932Z,7.60
2018-04-17T03:14:58.073Z,7.50
2018-04-17T03:17:26.999Z,7.50
2018-04-17T03:19:55.173Z,7.50
2018-04-17T03:22:23.323Z,7.50
2018-04-17T03:24:51.459Z,7.50
2018-04-17T03:27:19.624Z,7.50
2018-04-17T03:29:47.756Z,7.40
2018-04-17T03:32:15.912Z,7.40
2018-04-17T03:34:44.053Z,7.30
2018-04-17T03:37:12.217Z,7.30
2018-04-17T03:39:40.351Z,7.30
2018-04-17T03:42:08.515Z,7.30
2018-04-17T03:44:36.640Z,7.20
2018-04-17T03:47:04.808Z,7.10
2018-04-17T03:49:32.941Z,7.00
2018-04-17T03:52:01.100Z,7.00
2018-04-17T03:54:29.236Z,6.90
2018-04-17T03:56:57.400Z,6.80
2018-04-17T03:59:25.536Z,6.80
2018-04-17T04:01:53.699Z,6.70
2018-04-17T04:04:21.832Z,6.70
2018-04-17T04:06:49.993Z,6.60
2018-04-17T04:09:18.120Z,6.60
2018-04-17T04:11:46.293Z,6.50
2018-04-17T04:14:14.428Z,6.50
2018-04-17T04:16:54.264Z,6.50
2018-04-17T04:19:34.115Z,6.50
2018-04-17T04:22:14.012Z,6.40
2018-04-17T04:28:00.660Z,6.20
2018-04-17T04:30:28.802Z,6.20
2018-04-17T04:32:56.975Z,6.20
2018-04-17T04:35:26.113Z,6.20
2018-04-17T04:37:54.276Z,6.10
2018-04-17T04:40:22.417Z,6.10
2018-04-17T04:42:50.608Z,6.10
2018-04-17T04:45:18.748Z,6.20
2018-04-17T04:47:46.932Z,6.20
2018-04-17T04:50:15.065Z,6.20
2018-04-17T04:52:43.253Z,6.20
2018-04-17T04:55:11.398Z,6.30
2018-04-17T04:57:39.592Z,6.30
2018-04-17T05:00:07.724Z,6.40
2018-04-17T05:02:35.883Z,6.50
2018-04-17T05:05:04.017Z,6.60
2018-04-17T05:07:32.184Z,6.70
2018-04-17T05:10:00.329Z,6.80
2018-04-17T05:12:28.505Z,6.90
2018-04-17T05:14:56.645Z,6.90
2018-04-17T05:17:24.828Z,7.00
2018-04-17T05:19:52.969Z,7.10
2018-04-17T05:22:21.136Z,7.10
2018-04-17T05:24:49.272Z,7.20
2018-04-17T05:27:17.439Z,7.30
2018-04-17T05:29:45.572Z,7.40
2018-04-17T05:32:13.704Z,7.50
2018-04-17T05:34:41.863Z,7.60
2018-04-17T05:37:10.005Z,7.70
2018-04-17T05:39:38.928Z,7.80
2018-04-17T05:42:07.059Z,7.80
2018-04-17T05:44:36.004Z,7.90
2018-04-17T05:47:04.140Z,7.90
2018-04-17T05:49:33.069Z,8.10
2018-04-17T05:52:01.203Z,8.10
2018-04-17T05:54:30.164Z,8.30
2018-04-17T05:56:58.296Z,8.30
2018-04-17T05:59:26.465Z,8.40
2018-04-17T06:01:54.608Z,8.60
2018-04-17T06:04:22.772Z,8.70
2018-04-17T06:06:51.677Z,8.90
2018-04-17T06:09:19.836Z,8.90
2018-04-17T06:11:47.977Z,9.00
2018-04-17T06:14:16.140Z,9.10
2018-04-17T06:16:44.276Z,9.20
2018-04-17T06:19:12.452Z,9.30
2018-04-17T06:21:40.679Z,9.40
2018-04-17T06:24:08.839Z,9.50
2018-04-17T06:26:36.972Z,9.60
2018-04-17T06:29:05.896Z,9.80
2018-04-17T06:31:34.024Z,9.80
2018-04-17T06:34:02.960Z,10.00
2018-04-17T06:36:31.109Z,9.90
2018-04-17T06:38:59.480Z,10.10
2018-04-17T06:41:28.419Z,10.20
2018-04-17T06:43:56.571Z,10.20
2018-04-17T06:46:24.703Z,10.30
2018-04-17T06:48:52.976Z,10.30
2018-04-17T06:51:21.904Z,10.50
2018-04-17T06:53:50.233Z,10.50
2018-04-17T06:56:18.548Z,10.60
2018-04-17T06:58:46.788Z,10.70
2018-04-17T07:01:14.985Z,10.80
2018-04-17T07:03:43.139Z,10.90
2018-04-17T07:06:11.339Z,11.00
2018-04-17T07:08:39.519Z,11.10
2018-04-17T07:11:07.685Z,11.30
2018-04-17T07:13:35.893Z,11.40
2018-04-17T07:16:04.110Z,11.60
2018-04-17T07:18:32.344Z,11.80
2018-04-17T07:21:00.547Z,12.10
2018-04-17T07:23:28.791Z,12.50
2018-04-17T07:25:57.022Z,12.60
2018-04-17T07:28:25.207Z,12.90
2018-04-17T07:30:54.233Z,13.40
2018-04-17T07:33:22.452Z,13.40
2018-04-17T07:35:50.645Z,13.80
2018-04-17T07:38:19.681Z,14.20
2018-04-17T07:40:48.019Z,14.20
2018-04-17T07:43:17.037Z,14.10
2018-04-17T07:45:45.238Z,14.10
2018-04-17T07:48:26.054Z,14.20
2018-04-17T07:50:55.051Z,14.90
2018-04-17T07:53:23.233Z,14.80
2018-04-17T07:55:51.456Z,15.20
2018-04-17T07:58:19.638Z,15.40
2018-04-17T08:00:48.022Z,15.70
2018-04-17T08:03:16.258Z,16.10
2018-04-17T08:05:44.428Z,16.20
2018-04-17T08:08:12.587Z,16.40
2018-04-17T08:10:40.824Z,16.50
2018-04-17T08:13:09.033Z,16.60
2018-04-17T08:15:37.271Z,16.70
2018-04-17T08:18:06.434Z,17.00
2018-04-17T08:20:34.832Z,17.00
2018-04-17T08:23:03.025Z,17.00
2018-04-17T08:25:31.260Z,17.00
2018-04-17T08:27:59.417Z,17.00
2018-04-17T08:30:27.583Z,17.10
2018-04-17T08:32:55.725Z,17.20
2018-04-17T08:35:24.046Z,16.90
2018-04-17T08:37:52.615Z,17.00
2018-04-17T08:40:21.034Z,17.00
2018-04-17T08:42:49.603Z,16.70
2018-04-17T08:45:18.499Z,16.50
2018-04-17T08:47:46.635Z,16.50
2018-04-17T08:50:15.188Z,16.90
2018-04-17T08:52:43.735Z,16.90
2018-04-17T08:55:12.148Z,16.70
2018-04-17T08:57:40.307Z,16.60
2018-04-17T09:00:09.057Z,16.70
2018-04-17T09:02:37.228Z,16.70
2018-04-17T09:05:06.566Z,16.60
2018-04-17T09:07:35.416Z,16.30
2018-04-17T09:10:03.557Z,16.00
2018-04-17T09:12:31.728Z,15.60
2018-04-17T09:14:59.970Z,15.40
2018-04-17T09:17:28.140Z,15.60
2018-04-17T09:19:56.491Z,15.60
2018-04-17T09:22:24.664Z,15.70
2018-04-17T09:24:52.805Z,15.90
2018-04-17T09:27:20.992Z,16.00
2018-04-17T09:29:49.138Z,16.10
2018-04-17T09:32:17.337Z,16.10
2018-04-17T09:34:46.240Z,16.40
2018-04-17T09:37:14.478Z,16.30
2018-04-17T09:39:42.623Z,16.40
2018-04-17T09:42:10.831Z,16.30
2018-04-17T09:44:39.205Z,16.20
2018-04-17T09:47:07.402Z,16.20
2018-04-17T09:49:35.580Z,16.20
2018-04-17T09:52:04.090Z,16.20
2018-04-17T09:54:32.274Z,16.20
2018-04-17T09:57:00.456Z,16.30
2018-04-17T09:59:28.673Z,16.30
2018-04-17T10:01:57.068Z,16.20
2018-04-17T10:04:25.207Z,16.30
2018-04-17T10:06:53.372Z,16.40
2018-04-17T10:09:21.513Z,16.50
2018-04-17T10:11:49.667Z,16.70
2018-04-17T10:14:18.266Z,16.80
2018-04-17T10:16:46.440Z,16.90
2018-04-17T10:19:14.759Z,17.00
2018-04-17T10:21:42.934Z,16.90
2018-04-17T10:24:11.073Z,16.70
2018-04-17T10:26:39.252Z,16.60
2018-04-17T10:29:07.391Z,16.50
2018-04-17T10:31:35.575Z,16.40
2018-04-17T10:34:03.711Z,16.40
2018-04-17T10:36:31.907Z,16.70
2018-04-17T10:39:00.060Z,16.90
2018-04-17T10:41:28.228Z,17.20
2018-04-17T10:43:56.374Z,17.30
2018-04-17T10:46:24.548Z,17.40
2018-04-17T10:48:52.691Z,17.50
2018-04-17T10:51:20.836Z,17.70
2018-04-17T10:53:49.009Z,17.70
2018-04-17T10:56:17.171Z,17.70
2018-04-17T10:58:46.845Z,17.60
2018-04-17T11:01:14.983Z,17.70
2018-04-17T11:03:43.916Z,17.70
2018-04-17T11:06:12.052Z,17.70
2018-04-17T11:08:40.976Z,18.00
2018-04-17T11:11:09.119Z,18.00
2018-04-17T11:13:38.048Z,18.20
2018-04-17T11:16:06.193Z,18.20
2018-04-17T11:18:35.869Z,18.30
2018-04-17T11:21:04.023Z,18.30
2018-04-17T11:23:32.184Z,18.40
2018-04-17T11:26:00.322Z,18.50
2018-04-17T11:28:28.497Z,18.50
2018-04-17T11:30:56.639Z,18.50
2018-04-17T11:33:24.813Z,18.60
2018-04-17T11:35:52.961Z,18.70
2018-04-17T11:38:21.128Z,18.80
2018-04-17T11:40:49.274Z,18.80
2018-04-17T11:43:17.685Z,18.70
2018-04-17T11:45:45.853Z,18.50
2018-04-17T11:48:14.020Z,18.40
2018-04-17T11:50:42.168Z,18.40
2018-04-17T11:53:10.525Z,18.40
2018-04-17T11:55:38.660Z,18.60
2018-04-17T11:58:06.832Z,18.50
2018-04-17T12:00:34.984Z,18.40
2018-04-17T12:03:03.152Z,18.00
2018-04-17T12:05:31.299Z,17.80
2018-04-17T12:08:00.240Z,17.60
2018-04-17T12:10:28.376Z,17.60
2018-04-17T12:12:56.601Z,17.60
2018-04-17T12:15:24.923Z,17.70
2018-04-17T12:17:53.113Z,17.80
2018-04-17T12:20:21.262Z,17.90
2018-04-17T12:22:49.494Z,18.00
2018-04-17T12:25:17.642Z,17.90
2018-04-17T12:27:45.804Z,18.00
2018-04-17T12:30:13.936Z,18.10
2018-04-17T12:32:42.142Z,18.10
2018-04-17T12:35:17.219Z,18.10
2018-04-17T12:37:45.379Z,18.10
2018-04-17T12:40:13.525Z,18.20
2018-04-17T12:42:41.688Z,18.20
2018-04-17T12:45:09.829Z,18.30
2018-04-17T12:47:37.997Z,18.30
2018-04-17T12:50:06.128Z,18.30
2018-04-17T12:52:34.327Z,18.20
2018-04-17T12:55:02.522Z,18.20
2018-04-17T12:57:30.701Z,18.30
2018-04-17T12:59:58.883Z,18.50
2018-04-17T13:02:27.112Z,18.60
2018-04-17T13:04:55.323Z,18.60
2018-04-17T13:07:23.477Z,18.50
2018-04-17T13:09:51.720Z,18.50
2018-04-17T13:12:19.897Z,18.60
2018-04-17T13:14:48.067Z,18.60
2018-04-17T13:17:16.210Z,18.50
2018-04-17T13:19:44.376Z,18.60
2018-04-17T13:22:19.328Z,18.60
2018-04-17T13:24:48.276Z,18.50
2018-04-17T13:27:16.429Z,18.50
2018-04-17T13:29:44.600Z,18.20
2018-04-17T13:32:12.750Z,18.30
2018-04-17T13:34:40.918Z,18.40
2018-04-17T13:37:09.828Z,18.60
2018-04-17T13:39:38.000Z,18.60
2018-04-17T13:42:06.145Z,18.60
2018-04-17T13:44:34.317Z,18.50
2018-04-17T13:47:02.484Z,18.60
2018-04-17T13:49:30.665Z,18.70
2018-04-17T13:51:58.852Z,18.70
2018-04-17T13:54:27.020Z,18.70
2018-04-17T13:56:55.960Z,18.70
2018-04-17T13:59:24.197Z,18.70
2018-04-17T14:01:52.371Z,18.70
2018-04-17T14:04:20.543Z,18.80
2018-04-17T14:06:49.497Z,18.90
2018-04-17T14:09:17.677Z,18.90
2018-04-17T14:11:45.838Z,18.90
2018-04-17T14:14:14.051Z,19.00
2018-04-17T14:16:42.176Z,19.00
2018-04-17T14:19:10.406Z,19.10
2018-04-17T14:21:38.564Z,19.10
2018-04-17T14:24:06.741Z,19.10
2018-04-17T14:26:34.907Z,19.10
2018-04-17T14:29:03.085Z,19.20
2018-04-17T14:31:32.023Z,19.10
2018-04-17T14:34:00.211Z,19.10
2018-04-17T14:36:28.361Z,19.20
2018-04-17T14:38:56.526Z,19.30
2018-04-17T14:41:24.671Z,19.30
2018-04-17T14:43:52.903Z,19.50
2018-04-17T14:46:21.087Z,19.50
2018-04-17T14:48:49.243Z,19.50
2018-04-17T14:51:17.389Z,19.50
2018-04-17T14:53:45.683Z,19.40
2018-04-17T14:56:13.822Z,19.20
2018-04-17T14:58:41.999Z,18.90
2018-04-17T15:01:10.180Z,18.70
2018-04-17T15:03:39.133Z,18.70
2018-04-17T15:06:07.276Z,18.70
2018-04-17T15:08:35.679Z,18.80
2018-04-17T15:11:03.837Z,18.90
2018-04-17T15:13:31.985Z,18.70
2018-04-17T15:16:00.188Z,18.70
2018-04-17T15:18:28.359Z,18.90
2018-04-17T15:20:56.529Z,18.80
2018-04-17T15:23:24.676Z,18.80
2018-04-17T15:25:53.604Z,18.90
2018-04-17T15:28:21.752Z,18.90
2018-04-17T15:30:49.928Z,19.00
2018-04-17T15:33:18.074Z,19.10
2018-04-17T15:35:47.021Z,19.20
2018-04-17T15:38:15.223Z,19.20
2018-04-17T15:40:43.397Z,19.20
2018-04-17T15:43:11.649Z,19.10
2018-04-17T15:45:39.932Z,19.10
2018-04-17T15:48:08.182Z,19.10
2018-04-17T15:50:36.505Z,19.10
2018-04-17T15:53:04.702Z,19.10
2018-04-17T15:55:32.976Z,19.30
2018-04-17T15:58:01.915Z,19.60
2018-04-17T16:00:30.137Z,19.60
2018-04-17T16:02:58.305Z,19.70
2018-04-17T16:05:26.491Z,19.80
2018-04-17T16:07:54.647Z,19.70
2018-04-17T16:10:22.832Z,19.50
2018-04-17T16:12:50.968Z,19.20
2018-04-17T16:15:19.144Z,19.10
2018-04-17T16:17:47.301Z,18.90
2018-04-17T16:20:15.476Z,18.90
2018-04-17T16:22:43.939Z,18.70
2018-04-17T16:25:12.197Z,18.40
2018-04-17T16:27:40.438Z,18.30
2018-04-17T16:30:08.642Z,18.00
2018-04-17T16:32:36.805Z,17.80
2018-04-17T16:35:04.989Z,17.60
2018-04-17T16:37:33.142Z,17.60
2018-04-17T16:40:01.323Z,17.50
2018-04-17T16:42:29.502Z,17.40
2018-04-17T16:44:57.676Z,17.30
2018-04-17T16:47:25.845Z,17.30
2018-04-17T16:49:54.028Z,17.30
2018-04-17T16:52:22.314Z,17.20
2018-04-17T16:54:51.273Z,17.10
2018-04-17T16:57:19.421Z,17.10
2018-04-17T16:59:47.774Z,17.00
2018-04-17T17:02:15.917Z,17.00
2018-04-17T17:04:44.105Z,17.00
2018-04-17T17:07:12.270Z,16.90
2018-04-17T17:09:40.470Z,16.80
2018-04-17T17:12:08.651Z,16.80
2018-04-17T17:14:37.041Z,16.70
2018-04-17T17:17:05.229Z,16.60
2018-04-17T17:19:33.405Z,16.50
2018-04-17T17:22:01.591Z,16.40
2018-04-17T17:24:29.845Z,16.30
2018-04-17T17:26:58.032Z,16.20
2018-04-17T17:29:26.389Z,16.10
2018-04-17T17:31:54.583Z,16.00
2018-04-17T17:34:22.802Z,15.90
2018-04-17T17:36:50.968Z,15.90
2018-04-17T17:39:19.099Z,15.80
2018-04-17T17:41:47.661Z,15.80
2018-04-17T17:44:15.868Z,15.70
2018-04-17T17:46:44.028Z,15.70
2018-04-17T17:49:12.244Z,15.60
2018-04-17T17:51:40.417Z,15.50
2018-04-17T17:54:08.548Z,15.40
2018-04-17T17:56:36.741Z,15.20
2018-04-17T17:59:04.872Z,15.00
2018-04-17T18:01:33.800Z,14.70
2018-04-17T18:04:01.946Z,14.70
2018-04-17T18:06:30.110Z,14.50
2018-04-17T18:08:58.248Z,14.30
2018-04-17T18:11:26.404Z,14.20
2018-04-17T18:13:54.552Z,14.00
2018-04-17T18:16:22.717Z,13.80
2018-04-17T18:18:50.852Z,13.70
2018-04-17T18:21:19.008Z,13.60
2018-04-17T18:23:47.165Z,13.50
2018-04-17T18:26:15.328Z,13.40
2018-04-17T18:28:44.210Z,13.30
2018-04-17T18:31:12.416Z,13.20
2018-04-17T18:33:40.563Z,13.10
2018-04-17T18:36:08.736Z,13.00
2018-04-17T18:38:36.913Z,12.80
2018-04-17T18:41:05.075Z,12.70
2018-04-17T18:43:33.254Z,12.60
2018-04-17T18:46:01.470Z,12.50
2018-04-17T18:48:30.292Z,12.40
2018-04-17T18:50:59.715Z,12.10
2018-04-17T18:53:27.883Z,12.10
2018-04-17T18:55:56.067Z,12.00
2018-04-17T18:58:24.216Z,11.90
2018-04-17T19:00:52.495Z,11.80
2018-04-17T19:03:20.643Z,11.70
2018-04-17T19:05:49.015Z,11.60
2018-04-17T19:08:17.221Z,11.60
2018-04-17T19:10:45.423Z,11.50
2018-04-17T19:13:13.596Z,11.50
2018-04-17T19:15:41.755Z,11.40
2018-04-17T19:18:09.923Z,11.30
2018-04-17T19:20:38.943Z,11.20
2018-04-17T19:23:07.113Z,11.20
2018-04-17T19:25:35.279Z,11.20
2018-04-17T19:28:03.427Z,11.10
2018-04-17T19:30:32.388Z,11.00
2018-04-17T19:33:00.564Z,10.90
2018-04-17T19:35:28.748Z,10.90
2018-04-17T19:37:56.903Z,10.80
2018-04-17T19:40:25.091Z,10.70
2018-04-17T19:42:53.276Z,10.70
2018-04-17T19:45:21.437Z,10.60
2018-04-17T19:47:49.632Z,10.60
2018-04-17T19:50:17.800Z,10.50
2018-04-17T19:52:45.961Z,10.50
2018-04-17T19:55:14.132Z,10.40
2018-04-17T19:57:42.329Z,10.40
2018-04-17T20:00:10.491Z,10.30
2018-04-17T20:02:39.434Z,10.20
2018-04-17T20:05:07.618Z,10.20
2018-04-17T20:07:35.816Z,10.20
2018-04-17T20:10:05.476Z,10.10
2018-04-17T20:12:33.636Z,10.10
2018-04-17T20:15:01.782Z,10.10
2018-04-17T20:17:29.962Z,10.10
2018-04-17T20:19:58.120Z,10.00
2018-04-17T20:22:26.279Z,9.90
2018-04-17T20:24:54.445Z,9.90
2018-04-17T20:27:23.381Z,9.80
2018-04-17T20:29:52.290Z,9.80
2018-04-17T20:32:20.458Z,9.70
2018-04-17T20:34:53.226Z,9.70
2018-04-17T20:37:21.435Z,9.70
2018-04-17T20:39:49.569Z,9.70
2018-04-17T20:42:17.803Z,9.60
2018-04-17T20:44:45.970Z,9.60
2018-04-17T20:47:14.136Z,9.50
2018-04-17T20:49:42.275Z,9.50
2018-04-17T20:52:10.431Z,9.40
2018-04-17T20:54:38.566Z,9.30
2018-04-17T20:57:06.729Z,9.20
2018-04-17T20:59:35.561Z,9.20
2018-04-17T21:02:03.764Z,9.10
2018-04-17T21:04:31.946Z,9.10
2018-04-17T21:07:00.123Z,9.10
2018-04-17T21:09:28.290Z,9.00
2018-04-17T21:11:56.476Z,9.00
2018-04-17T21:14:24.633Z,9.00
2018-04-17T21:16:53.569Z,9.00
2018-04-17T21:19:21.721Z,9.00
2018-04-17T21:21:49.942Z,9.00
2018-04-17T21:24:18.084Z,8.90
2018-04-17T21:26:46.271Z,8.90
2018-04-17T21:29:14.424Z,8.90
2018-04-17T21:31:42.567Z,8.90
2018-04-17T21:34:10.728Z,8.80
2018-04-17T21:36:38.912Z,8.80
2018-04-17T21:39:07.072Z,8.80
2018-04-17T21:41:35.214Z,8.70
2018-04-17T21:44:03.377Z,8.70
2018-04-17T21:46:31.523Z,8.70
2018-04-17T21:48:59.690Z,8.70
2018-04-17T21:51:27.824Z,8.70
2018-04-17T21:53:55.988Z,8.60
2018-04-17T21:56:24.129Z,8.60
2018-04-17T21:58:52.292Z,8.60
2018-04-17T22:01:35.312Z,8.70
2018-04-17T22:04:03.473Z,8.70
2018-04-17T22:06:31.620Z,8.70
2018-04-17T22:08:59.779Z,8.80
2018-04-17T22:11:27.917Z,8.80
2018-04-17T22:13:56.082Z,8.80
2018-04-17T22:16:24.216Z,8.90
2018-04-17T22:18:52.378Z,8.90
2018-04-17T22:21:20.513Z,9.00
2018-04-17T22:23:48.668Z,9.00
2018-04-17T22:26:16.810Z,9.00
2018-04-17T22:28:44.967Z,9.00
2018-04-17T22:31:13.105Z,8.90
2018-04-17T22:33:41.261Z,8.90
2018-04-17T22:36:09.403Z,8.90
2018-04-17T22:38:37.577Z,8.80
2018-04-17T22:41:05.704Z,8.70
2018-04-17T22:43:33.869Z,8.70
2018-04-17T22:46:02.000Z,8.60
2018-04-17T22:48:30.194Z,8.50
2018-04-17T22:50:58.320Z,8.50
2018-04-17T22:53:26.479Z,8.40
2018-04-17T22:55:54.621Z,8.40
2018-04-17T22:58:23.540Z,8.30
2018-04-17T23:00:51.679Z,8.20
2018-04-17T23:03:20.601Z,8.20
2018-04-17T23:05:48.732Z,8.10
2018-04-17T23:08:17.652Z,8.10
2018-04-17T23:10:46.779Z,8.10
2018-04-17T23:13:14.941Z,8.10
2018-04-17T23:15:43.073Z,8.00
2018-04-17T23:18:11.233Z,8.00
2018-04-17T23:20:39.376Z,8.00
2018-04-17T23:23:07.536Z,8.00
2018-04-17T23:25:35.676Z,8.00
2018-04-17T23:28:03.834Z,8.00
2018-04-17T23:30:32.736Z,8.00
2018-04-17T23:33:00.896Z,7.90
2018-04-17T23:35:29.031Z,7.90
2018-04-17T23:37:57.160Z,7.90
2018-04-17T23:40:25.313Z,7.90
2018-04-17T23:42:53.447Z,7.90
2018-04-17T23:45:21.600Z,7.90
2018-04-17T23:47:49.738Z,7.90
2018-04-17T23:50:17.896Z,7.80
2018-04-17T23:52:46.032Z,7.80
2018-04-17T23:55:14.192Z,7.80
2018-04-17T23:57:42.323Z,7.80
